LHBD (Börgönd) - 119.550 - ALBA INFO - 01 LH, 19 RH - 10km SE Székesfehérvár - DROPZONE +3670624884

Élőkép

Információk

Albatrosz Repülő Egyesület
8000 Székesfehérvár,
Radványi utca 6.

Adószám:
19092908-2-07

Bankszámla szám:
Budapest Bank
10102952-01361819-00000001

Telefon: +36 30 9598-897

Drop-Zone: +36 70 624-8884

Telephey: Börgönd repülőtér

Börgöndi repülõtér

LHBP METAR/TAF

[source: ADDS]
METAR
TAF LHBP 041100Z 0412/0512 17007KT CAVOK TEMPO 0414/0420 -SHRA SCT045 BECMG 0418/0420 VRB03KT TEMPO 0504/0512 -SHRA SCT035 TAF
TAF LHBP 041100Z 0412/0512 17007KT CAVOK TEMPO 0414/0420 -SHRA SCT045 BECMG 0418/0420 VRB03KT TEMPO 0504/0512 -SHRA SCT035 =
SR / SS: 03:31 / 18:16 UTC (Börgönd 2015-08-04)
Hungarian Chinese (Simplified) Croatian Czech English Finnish French German Hebrew Italian Japanese Polish Portuguese Romanian Russian Serbian Slovak Slovenian Spanish

Belépés tagoknak